createdAt,value
2023-03-19T00:01:10.450Z,15.90
2023-03-19T00:06:13.378Z,15.90
2023-03-19T00:11:16.260Z,15.80
2023-03-19T00:16:20.728Z,15.80
2023-03-19T00:21:25.941Z,15.70
2023-03-19T00:26:29.290Z,15.70
2023-03-19T00:31:34.646Z,15.40
2023-03-19T00:36:38.186Z,15.20
2023-03-19T00:41:41.757Z,15.00
2023-03-19T00:46:46.405Z,14.70
2023-03-19T00:51:49.243Z,14.70
2023-03-19T00:56:52.075Z,14.90
2023-03-19T01:01:56.377Z,14.90
2023-03-19T01:12:04.642Z,14.80
2023-03-19T01:17:09.808Z,14.70
2023-03-19T01:22:13.002Z,14.80
2023-03-19T01:27:18.317Z,14.90
2023-03-19T01:32:23.138Z,15.00
2023-03-19T01:37:44.347Z,15.10
2023-03-19T01:42:56.177Z,15.00
2023-03-19T01:48:28.496Z,15.10
2023-03-19T01:53:46.325Z,15.00
2023-03-19T01:59:02.188Z,15.20
2023-03-19T02:04:18.241Z,15.10
2023-03-19T02:09:21.861Z,15.10
2023-03-19T02:14:25.115Z,15.10
2023-03-19T02:19:36.421Z,15.10
2023-03-19T02:24:42.763Z,15.00
2023-03-19T02:29:50.796Z,15.00
2023-03-19T02:34:53.933Z,15.10
2023-03-19T02:40:01.607Z,15.10
2023-03-19T02:45:07.224Z,15.20
2023-03-19T02:50:12.005Z,15.10
2023-03-19T02:55:14.931Z,15.20
2023-03-19T03:00:20.807Z,15.20
2023-03-19T03:05:23.767Z,15.20
2023-03-19T03:10:27.048Z,15.30
2023-03-19T03:15:31.316Z,15.20
2023-03-19T03:20:34.604Z,15.20
2023-03-19T03:25:37.900Z,15.10
2023-03-19T03:30:42.154Z,15.20
2023-03-19T03:35:45.219Z,15.10
2023-03-19T03:40:51.412Z,15.30
2023-03-19T03:45:56.085Z,15.20
2023-03-19T03:50:59.460Z,15.10
2023-03-19T03:56:04.458Z,15.10
2023-03-19T04:01:09.129Z,15.20
2023-03-19T04:06:16.676Z,15.20
2023-03-19T04:11:19.843Z,15.20
2023-03-19T04:16:24.129Z,15.10
2023-03-19T04:21:28.730Z,15.10
2023-03-19T04:26:31.753Z,15.10
2023-03-19T04:31:36.098Z,15.00
2023-03-19T04:36:39.658Z,15.10
2023-03-19T04:41:42.653Z,15.00
2023-03-19T04:47:02.907Z,15.10
2023-03-19T04:52:12.720Z,15.00
2023-03-19T04:57:15.918Z,15.00
2023-03-19T05:02:23.293Z,15.10
2023-03-19T05:07:27.298Z,15.20
2023-03-19T05:12:30.836Z,15.10
2023-03-19T05:17:36.459Z,15.00
2023-03-19T05:22:53.507Z,15.10
2023-03-19T05:28:00.242Z,15.00
2023-03-19T05:33:04.856Z,15.10
2023-03-19T05:38:11.878Z,15.10
2023-03-19T05:43:17.273Z,15.10
2023-03-19T05:48:22.214Z,15.10
2023-03-19T05:53:27.490Z,15.00
2023-03-19T05:58:50.372Z,15.10
2023-03-19T06:03:59.911Z,15.10
2023-03-19T06:09:04.152Z,15.00
2023-03-19T06:14:12.786Z,15.00
2023-03-19T06:19:21.124Z,15.10
2023-03-19T06:24:24.710Z,14.90
2023-03-19T06:29:28.066Z,15.00
2023-03-19T06:34:39.340Z,15.00
2023-03-19T06:39:42.681Z,15.00
2023-03-19T06:44:45.589Z,15.10
2023-03-19T06:49:49.832Z,15.10
2023-03-19T06:54:52.716Z,15.10
2023-03-19T06:59:55.745Z,15.10
2023-03-19T07:05:00.299Z,15.10
2023-03-19T07:10:03.851Z,15.10
2023-03-19T07:15:08.073Z,15.20
2023-03-19T07:20:13.915Z,15.40
2023-03-19T07:25:16.961Z,15.40
2023-03-19T07:30:20.363Z,15.30
2023-03-19T07:35:24.623Z,15.40
2023-03-19T07:40:27.912Z,15.50
2023-03-19T07:45:31.177Z,15.50
2023-03-19T07:50:35.837Z,15.60
2023-03-19T07:55:39.039Z,15.70
2023-03-19T08:00:42.004Z,15.60
2023-03-19T08:05:48.693Z,15.70
2023-03-19T08:10:54.316Z,15.80
2023-03-19T08:15:57.210Z,15.80
2023-03-19T08:21:01.471Z,15.90
2023-03-19T08:26:04.480Z,15.90
2023-03-19T08:31:08.963Z,16.00
2023-03-19T08:36:14.855Z,16.00
2023-03-19T08:41:17.727Z,16.20
2023-03-19T08:46:20.951Z,16.30
2023-03-19T08:51:26.321Z,16.60
2023-03-19T08:56:29.309Z,16.80
2023-03-19T09:01:32.228Z,16.90
2023-03-19T09:06:36.484Z,17.00
2023-03-19T09:11:39.404Z,17.00
2023-03-19T09:16:42.300Z,17.00
2023-03-19T09:21:46.636Z,17.10
2023-03-19T09:26:50.058Z,16.90
2023-03-19T09:31:52.986Z,16.80
2023-03-19T09:36:57.225Z,16.60
2023-03-19T09:42:16.256Z,16.70
2023-03-19T09:47:31.576Z,16.70
2023-03-19T09:52:45.062Z,16.70
2023-03-19T09:57:49.272Z,16.80
2023-03-19T10:02:59.190Z,16.70
2023-03-19T10:08:32.891Z,16.60
2023-03-19T10:13:48.799Z,16.60
2023-03-19T10:19:00.617Z,16.80
2023-03-19T10:24:12.337Z,16.80
2023-03-19T10:29:19.043Z,16.90
2023-03-19T10:34:32.248Z,16.90
2023-03-19T10:39:38.698Z,17.00
2023-03-19T10:44:49.299Z,16.90
2023-03-19T10:49:52.304Z,16.90
2023-03-19T10:55:03.441Z,17.10
2023-03-19T11:00:10.991Z,17.10
2023-03-19T11:05:25.057Z,17.00
2023-03-19T11:10:31.651Z,16.90
2023-03-19T11:15:37.767Z,16.90
2023-03-19T11:20:41.857Z,16.80
2023-03-19T11:25:52.164Z,16.80
2023-03-19T11:31:02.173Z,16.80
2023-03-19T11:36:11.951Z,16.80
2023-03-19T11:41:30.926Z,16.70
2023-03-19T11:46:40.318Z,16.70
2023-03-19T11:51:51.045Z,16.80
2023-03-19T11:57:02.147Z,16.80
2023-03-19T12:02:39.418Z,16.60
2023-03-19T12:07:49.180Z,16.40
2023-03-19T12:13:07.134Z,16.50
2023-03-19T12:18:20.319Z,16.40
2023-03-19T12:23:42.697Z,16.50
2023-03-19T12:28:54.124Z,16.50
2023-03-19T12:34:09.059Z,16.50
2023-03-19T12:39:14.835Z,16.70
2023-03-19T12:44:24.001Z,16.60
2023-03-19T12:49:32.812Z,16.90
2023-03-19T12:54:39.505Z,16.80
2023-03-19T12:59:50.617Z,16.60
2023-03-19T13:04:58.003Z,16.60
2023-03-19T13:10:09.148Z,16.70
2023-03-19T13:15:18.436Z,16.90
2023-03-19T13:20:29.652Z,16.90
2023-03-19T13:25:37.927Z,16.90
2023-03-19T13:31:00.748Z,16.90
2023-03-19T13:36:09.343Z,17.00
2023-03-19T13:41:49.596Z,16.90
2023-03-19T13:46:54.793Z,16.50
2023-03-19T13:52:02.429Z,16.50
2023-03-19T13:57:22.523Z,16.50
2023-03-19T14:02:58.926Z,16.30
2023-03-19T14:08:01.936Z,16.30
2023-03-19T14:13:10.144Z,16.20
2023-03-19T14:18:19.432Z,16.20
2023-03-19T14:23:38.549Z,16.10
2023-03-19T14:29:00.779Z,16.10
2023-03-19T14:34:28.353Z,16.00
2023-03-19T14:39:33.392Z,16.00
2023-03-19T14:45:14.565Z,15.90
2023-03-19T14:50:41.088Z,15.80
2023-03-19T14:55:51.693Z,15.60
2023-03-19T15:00:56.511Z,15.60
2023-03-19T15:06:03.075Z,15.40
2023-03-19T15:11:22.996Z,15.50
2023-03-19T15:16:39.990Z,15.60
2023-03-19T15:21:44.243Z,15.40
2023-03-19T15:26:47.796Z,15.30
2023-03-19T15:32:02.426Z,15.30
2023-03-19T15:37:12.554Z,15.20
2023-03-19T15:42:17.795Z,15.30
2023-03-19T15:47:26.861Z,15.20
2023-03-19T15:52:33.470Z,15.40
2023-03-19T15:57:39.811Z,15.30
2023-03-19T16:02:44.752Z,15.30
2023-03-19T16:08:00.551Z,15.00
2023-03-19T16:13:19.600Z,15.30
2023-03-19T16:18:28.016Z,15.30
2023-03-19T16:23:34.608Z,15.30
2023-03-19T16:28:45.107Z,15.40
2023-03-19T16:33:48.424Z,15.40
2023-03-19T16:38:58.249Z,15.30
2023-03-19T16:44:16.154Z,15.30
2023-03-19T16:49:20.954Z,15.30
2023-03-19T16:54:26.312Z,16.30
2023-03-19T16:59:31.692Z,15.80
2023-03-19T17:04:34.580Z,15.60
2023-03-19T17:09:39.176Z,15.50
2023-03-19T17:14:42.418Z,15.40
2023-03-19T17:19:46.656Z,15.10
2023-03-19T17:24:50.939Z,14.90
2023-03-19T17:29:53.815Z,14.90
2023-03-19T17:34:56.810Z,14.90
2023-03-19T17:40:01.270Z,14.80
2023-03-19T17:45:04.769Z,14.70
2023-03-19T17:50:08.422Z,14.50
2023-03-19T17:55:17.554Z,13.90
2023-03-19T18:00:22.328Z,13.50
2023-03-19T18:05:26.905Z,13.70
2023-03-19T18:10:33.796Z,13.80
2023-03-19T18:15:43.167Z,14.00
2023-03-19T18:20:47.336Z,14.00
2023-03-19T18:25:51.913Z,13.70
2023-03-19T18:30:54.947Z,13.70
2023-03-19T18:35:59.071Z,13.80
2023-03-19T18:41:03.419Z,13.80
2023-03-19T18:46:16.147Z,13.90
2023-03-19T18:51:19.046Z,13.90
2023-03-19T18:56:26.267Z,13.80
2023-03-19T19:01:30.365Z,13.80
2023-03-19T19:06:46.903Z,13.70
2023-03-19T19:11:54.214Z,13.70
2023-03-19T19:16:59.337Z,13.50
2023-03-19T19:22:02.410Z,13.70
2023-03-19T19:27:17.787Z,13.80
2023-03-19T19:32:24.761Z,13.80
2023-03-19T19:37:27.781Z,13.60
2023-03-19T19:42:32.018Z,13.60
2023-03-19T19:47:35.821Z,13.40
2023-03-19T19:52:39.021Z,13.50
2023-03-19T19:57:44.303Z,13.60
2023-03-19T20:02:47.444Z,13.30
2023-03-19T20:07:51.539Z,13.20
2023-03-19T20:12:57.811Z,13.10
2023-03-19T20:18:02.332Z,12.80
2023-03-19T20:23:05.323Z,12.70
2023-03-19T20:28:16.284Z,12.70
2023-03-19T20:33:19.402Z,12.60
2023-03-19T20:38:22.360Z,12.80
2023-03-19T20:43:29.060Z,12.70
2023-03-19T20:48:33.214Z,12.60
2023-03-19T20:53:36.238Z,12.60
2023-03-19T20:58:40.747Z,12.40
2023-03-19T21:03:43.794Z,12.50
2023-03-19T21:08:51.150Z,12.60
2023-03-19T21:13:55.746Z,12.40
2023-03-19T21:18:59.021Z,12.10
2023-03-19T21:24:05.073Z,11.70
2023-03-19T21:29:19.936Z,12.00
2023-03-19T21:34:22.826Z,12.10
2023-03-19T21:39:25.851Z,11.90
2023-03-19T21:44:31.343Z,11.60
2023-03-19T21:49:34.242Z,11.90
2023-03-19T21:54:37.119Z,12.00
2023-03-19T21:59:42.842Z,13.10
2023-03-19T22:04:45.756Z,12.60
2023-03-19T22:09:48.640Z,12.20
2023-03-19T22:14:53.069Z,12.20
2023-03-19T22:19:56.547Z,12.30
2023-03-19T22:25:00.320Z,12.30
2023-03-19T22:30:04.998Z,12.30
2023-03-19T22:35:16.501Z,12.40
2023-03-19T22:40:19.921Z,12.50
2023-03-19T22:45:28.629Z,12.40
2023-03-19T22:50:33.039Z,12.40
2023-03-19T22:55:37.391Z,12.20
2023-03-19T23:00:41.781Z,12.40
2023-03-19T23:05:49.111Z,12.40
2023-03-19T23:10:53.480Z,12.30
2023-03-19T23:16:00.699Z,12.20
2023-03-19T23:21:04.345Z,12.30
2023-03-19T23:26:10.892Z,12.40
2023-03-19T23:31:15.240Z,12.40
2023-03-19T23:36:18.415Z,12.40
2023-03-19T23:41:24.464Z,12.30
2023-03-19T23:46:29.208Z,12.50
2023-03-19T23:51:32.151Z,12.50
2023-03-19T23:56:35.049Z,12.50
